createdAt,value
2022-10-11T00:00:58.690Z,8.14
2022-10-11T00:03:35.108Z,8.12
2022-10-11T00:06:05.861Z,8.10
2022-10-11T00:08:34.421Z,8.09
2022-10-11T00:11:06.054Z,8.06
2022-10-11T00:13:35.004Z,8.05
2022-10-11T00:16:08.698Z,8.03
2022-10-11T00:18:36.797Z,8.02
2022-10-11T00:21:08.494Z,8.00
2022-10-11T00:23:37.283Z,7.98
2022-10-11T00:26:07.935Z,7.95
2022-10-11T00:28:36.965Z,7.93
2022-10-11T00:31:10.408Z,7.91
2022-10-11T00:33:38.473Z,7.90
2022-10-11T00:36:08.760Z,7.88
2022-10-11T00:38:37.071Z,7.88
2022-10-11T00:41:05.039Z,7.87
2022-10-11T00:43:34.243Z,7.85
2022-10-11T00:46:08.139Z,7.83
2022-10-11T00:49:04.474Z,7.82
2022-10-11T00:51:35.339Z,7.81
2022-10-11T00:54:03.927Z,7.78
2022-10-11T00:56:36.986Z,7.75
2022-10-11T00:59:12.628Z,7.74
2022-10-11T01:01:40.981Z,7.74
2022-10-11T01:04:08.878Z,7.68
2022-10-11T01:06:36.880Z,7.69
2022-10-11T01:09:04.909Z,7.67
2022-10-11T01:11:42.787Z,7.68
2022-10-11T01:14:47.852Z,7.69
2022-10-11T01:17:21.343Z,7.67
2022-10-11T01:20:09.895Z,7.67
2022-10-11T01:23:16.365Z,7.64
2022-10-11T01:25:49.867Z,7.62
2022-10-11T01:28:25.430Z,7.62
2022-10-11T01:30:57.462Z,7.62
2022-10-11T01:33:48.008Z,7.56
2022-10-11T01:36:34.399Z,7.57
2022-10-11T01:39:04.819Z,7.59
2022-10-11T01:41:39.372Z,7.62
2022-10-11T01:44:09.567Z,7.66
2022-10-11T01:46:37.608Z,7.70
2022-10-11T01:49:05.997Z,7.75
2022-10-11T01:51:38.151Z,7.80
2022-10-11T01:54:13.938Z,7.85
2022-10-11T01:57:07.364Z,7.90
2022-10-11T01:59:57.968Z,7.94
2022-10-11T02:03:03.817Z,7.98
2022-10-11T02:05:48.548Z,8.04
2022-10-11T02:08:50.548Z,8.06
2022-10-11T02:11:29.302Z,8.09
2022-10-11T02:14:25.570Z,8.13
2022-10-11T02:17:04.222Z,8.17
2022-10-11T02:19:38.640Z,8.22
2022-10-11T02:22:10.417Z,8.27
2022-10-11T02:24:42.015Z,8.31
2022-10-11T02:27:11.481Z,8.35
2022-10-11T02:29:43.826Z,8.38
2022-10-11T02:32:12.913Z,8.43
2022-10-11T02:34:47.476Z,8.48
2022-10-11T02:37:26.873Z,8.53
2022-10-11T02:40:01.497Z,8.58
2022-10-11T02:42:36.631Z,8.62
2022-10-11T02:45:34.753Z,8.65
2022-10-11T02:48:03.696Z,8.68
2022-10-11T02:50:31.773Z,8.71
2022-10-11T02:52:59.528Z,8.75
2022-10-11T02:55:27.396Z,8.79
2022-10-11T02:57:55.163Z,8.82
2022-10-11T03:00:23.026Z,8.84
2022-10-11T03:02:50.888Z,8.86
2022-10-11T03:05:18.807Z,8.91
2022-10-11T03:07:46.752Z,8.94
2022-10-11T03:10:14.760Z,8.97
2022-10-11T03:12:42.655Z,9.02
2022-10-11T03:15:10.932Z,9.09
2022-10-11T03:17:38.832Z,9.16
2022-10-11T03:20:07.607Z,9.21
2022-10-11T03:22:35.757Z,9.26
2022-10-11T03:25:04.873Z,9.30
2022-10-11T03:27:34.124Z,9.32
2022-10-11T03:30:02.434Z,9.34
2022-10-11T03:32:30.615Z,9.36
2022-10-11T03:34:58.465Z,9.39
2022-10-11T03:37:27.080Z,9.39
2022-10-11T03:39:54.819Z,9.39
2022-10-11T03:42:22.580Z,9.40
2022-10-11T03:44:52.118Z,9.41
2022-10-11T03:47:20.252Z,9.40
2022-10-11T03:49:48.046Z,9.39
2022-10-11T03:52:15.800Z,9.39
2022-10-11T03:54:43.848Z,9.37
2022-10-11T03:57:11.608Z,9.36
2022-10-11T03:59:39.373Z,9.35
2022-10-11T04:02:07.360Z,9.33
2022-10-11T04:04:35.411Z,9.31
2022-10-11T04:07:03.593Z,9.29
2022-10-11T04:09:31.403Z,9.26
2022-10-11T04:11:59.424Z,9.22
2022-10-11T04:14:27.508Z,9.22
2022-10-11T04:16:59.538Z,9.21
2022-10-11T04:19:28.275Z,9.20
2022-10-11T04:21:56.018Z,9.18
2022-10-11T04:24:23.766Z,9.16
2022-10-11T04:26:51.567Z,9.13
2022-10-11T04:29:19.309Z,9.11
2022-10-11T04:31:47.155Z,9.10
2022-10-11T04:34:15.024Z,9.08
2022-10-11T04:36:45.298Z,9.08
2022-10-11T04:39:17.102Z,9.06
2022-10-11T04:41:45.067Z,9.03
2022-10-11T04:44:12.793Z,9.02
2022-10-11T04:46:40.595Z,9.01
2022-10-11T04:49:08.972Z,8.99
2022-10-11T04:51:36.835Z,8.99
2022-10-11T04:54:04.701Z,8.99
2022-10-11T04:56:32.572Z,9.00
2022-10-11T04:59:00.336Z,8.99
2022-10-11T05:01:28.098Z,8.99
2022-10-11T05:03:55.960Z,9.00
2022-10-11T05:06:24.400Z,9.00
2022-10-11T05:08:52.424Z,9.01
2022-10-11T05:11:20.686Z,9.02
2022-10-11T05:13:48.494Z,9.04
2022-10-11T05:16:16.892Z,9.04
2022-10-11T05:18:45.083Z,9.07
2022-10-11T05:21:20.047Z,9.09
2022-10-11T05:23:49.904Z,9.12
2022-10-11T05:26:19.319Z,9.15
2022-10-11T05:28:48.110Z,9.17
2022-10-11T05:31:16.928Z,9.18
2022-10-11T05:33:45.095Z,9.19
2022-10-11T05:36:13.270Z,9.20
2022-10-11T05:38:41.204Z,9.22
2022-10-11T05:41:09.492Z,9.25
2022-10-11T05:43:37.781Z,9.26
2022-10-11T05:46:06.855Z,9.29
2022-10-11T05:48:35.072Z,9.32
2022-10-11T05:51:05.648Z,9.35
2022-10-11T05:53:33.515Z,9.39
2022-10-11T05:56:01.833Z,9.45
2022-10-11T05:58:29.879Z,9.51
2022-10-11T06:00:57.970Z,9.60
2022-10-11T06:03:25.829Z,9.70
2022-10-11T06:05:56.991Z,9.79
2022-10-11T06:08:25.215Z,9.88
2022-10-11T06:10:53.121Z,9.97
2022-10-11T06:13:20.876Z,10.07
2022-10-11T06:15:48.756Z,10.14
2022-10-11T06:18:16.528Z,10.24
2022-10-11T06:20:44.269Z,10.31
2022-10-11T06:23:12.346Z,10.39
2022-10-11T06:25:40.424Z,10.49
2022-10-11T06:28:08.243Z,10.56
2022-10-11T06:30:36.140Z,10.64
2022-10-11T06:33:05.060Z,10.72
2022-10-11T06:35:33.001Z,10.78
2022-10-11T06:38:00.781Z,10.86
2022-10-11T06:40:28.534Z,10.91
2022-10-11T06:42:56.495Z,10.95
2022-10-11T06:45:24.356Z,11.00
2022-10-11T06:47:52.124Z,11.03
2022-10-11T06:50:34.799Z,11.09
2022-10-11T06:53:08.485Z,11.10
2022-10-11T06:55:36.301Z,11.11
2022-10-11T06:58:04.167Z,11.10
2022-10-11T07:00:32.027Z,11.06
2022-10-11T07:03:00.567Z,11.06
2022-10-11T07:05:29.707Z,11.07
2022-10-11T07:07:57.434Z,11.06
2022-10-11T07:10:25.208Z,11.05
2022-10-11T07:12:53.242Z,11.06
2022-10-11T07:15:21.285Z,11.07
2022-10-11T07:17:49.013Z,11.07
2022-10-11T07:20:16.847Z,11.09
2022-10-11T07:22:44.565Z,11.14
2022-10-11T07:25:12.334Z,11.16
2022-10-11T07:27:40.091Z,11.23
2022-10-11T07:30:08.376Z,11.26
2022-10-11T07:32:36.097Z,11.33
2022-10-11T07:35:04.150Z,11.39
2022-10-11T07:37:33.250Z,11.44
2022-10-11T07:40:01.273Z,11.55
2022-10-11T07:42:29.024Z,11.66
2022-10-11T07:44:57.095Z,11.72
2022-10-11T07:47:24.863Z,11.75
2022-10-11T07:49:52.981Z,11.77
2022-10-11T07:52:20.739Z,11.80
2022-10-11T07:54:49.646Z,11.81
2022-10-11T07:57:17.445Z,11.80
2022-10-11T07:59:50.004Z,11.77
2022-10-11T08:02:18.192Z,11.74
2022-10-11T08:04:45.961Z,11.75
2022-10-11T08:07:14.033Z,11.74
2022-10-11T08:09:41.789Z,11.74
2022-10-11T08:12:10.154Z,11.75
2022-10-11T08:14:37.983Z,11.79
2022-10-11T08:17:05.773Z,11.86
2022-10-11T08:19:34.112Z,11.90
2022-10-11T08:22:02.055Z,11.93
2022-10-11T08:24:31.064Z,11.99
2022-10-11T08:27:01.362Z,12.03
2022-10-11T08:29:29.322Z,12.07
2022-10-11T08:31:57.198Z,12.13
2022-10-11T08:34:25.267Z,12.19
2022-10-11T08:36:53.130Z,12.30
2022-10-11T08:39:21.440Z,12.37
2022-10-11T08:42:02.373Z,12.40
2022-10-11T08:45:10.052Z,12.43
2022-10-11T08:47:42.322Z,12.42
2022-10-11T08:50:20.547Z,12.43
2022-10-11T08:52:53.899Z,12.52
2022-10-11T08:55:45.157Z,12.59
2022-10-11T08:58:16.626Z,12.65
2022-10-11T09:00:47.085Z,12.68
2022-10-11T09:03:38.157Z,12.65
2022-10-11T09:06:21.572Z,12.60
2022-10-11T09:09:20.722Z,12.56
2022-10-11T09:11:51.194Z,12.54
2022-10-11T09:14:40.419Z,12.57
2022-10-11T09:17:32.598Z,12.58
2022-10-11T09:20:30.364Z,12.55
2022-10-11T09:23:28.536Z,12.58
2022-10-11T09:26:05.536Z,12.62
2022-10-11T09:28:41.984Z,12.66
2022-10-11T09:31:11.696Z,12.74
2022-10-11T09:33:45.395Z,12.78
2022-10-11T09:36:28.557Z,12.80
2022-10-11T09:39:06.481Z,12.75
2022-10-11T09:41:59.269Z,12.72
2022-10-11T09:44:35.536Z,12.70
2022-10-11T09:47:04.934Z,12.66
2022-10-11T09:49:42.839Z,12.63
2022-10-11T09:52:20.121Z,12.64
2022-10-11T09:54:51.571Z,12.65
2022-10-11T09:57:29.895Z,12.65
2022-10-11T10:00:02.296Z,12.65
2022-10-11T10:02:39.241Z,12.74
2022-10-11T10:05:07.202Z,12.88
2022-10-11T10:07:36.298Z,13.02
2022-10-11T10:10:41.607Z,13.19
2022-10-11T10:13:29.254Z,13.23
2022-10-11T10:16:00.216Z,13.23
2022-10-11T10:18:36.402Z,13.25
2022-10-11T10:21:11.977Z,13.35
2022-10-11T10:23:45.375Z,13.46
2022-10-11T10:26:21.498Z,13.62
2022-10-11T10:29:11.460Z,13.76
2022-10-11T10:32:13.891Z,13.95
2022-10-11T10:35:08.422Z,14.13
2022-10-11T10:37:54.501Z,14.26
2022-10-11T10:40:43.910Z,14.31
2022-10-11T10:43:20.707Z,14.33
2022-10-11T10:46:10.671Z,14.37
2022-10-11T10:49:41.250Z,14.45
2022-10-11T10:55:17.059Z,14.62
2022-10-11T10:58:15.084Z,14.72
2022-10-11T11:01:03.389Z,14.79
2022-10-11T11:03:49.993Z,14.92
2022-10-11T11:06:39.478Z,15.08
2022-10-11T11:09:42.449Z,15.18
2022-10-11T11:12:27.169Z,15.34
2022-10-11T11:15:07.350Z,15.43
2022-10-11T11:18:02.198Z,15.40
2022-10-11T11:20:44.079Z,15.33
2022-10-11T11:23:29.370Z,15.30
2022-10-11T11:26:27.356Z,15.16
2022-10-11T11:29:18.007Z,14.99
2022-10-11T11:31:59.456Z,14.98
2022-10-11T11:34:49.854Z,15.02
2022-10-11T11:37:32.875Z,15.11
2022-10-11T11:40:16.773Z,15.18
2022-10-11T11:43:00.798Z,15.27
2022-10-11T11:45:49.151Z,15.28
2022-10-11T11:48:26.898Z,15.39
2022-10-11T11:51:16.219Z,15.49
2022-10-11T11:54:29.724Z,15.63
2022-10-11T11:57:29.621Z,15.69
2022-10-11T12:00:06.510Z,15.61
2022-10-11T12:03:04.197Z,15.55
2022-10-11T12:05:36.904Z,15.55
2022-10-11T12:08:28.021Z,15.54
2022-10-11T12:11:20.499Z,15.54
2022-10-11T12:14:00.954Z,15.60
2022-10-11T12:16:32.687Z,15.66
2022-10-11T12:19:30.455Z,15.69
2022-10-11T12:22:40.716Z,15.73
2022-10-11T12:28:53.131Z,15.45
2022-10-11T12:31:34.799Z,15.33
2022-10-11T12:34:13.055Z,15.32
2022-10-11T12:36:48.087Z,15.36
2022-10-11T12:39:26.500Z,15.41
2022-10-11T12:42:19.497Z,15.45
2022-10-11T12:45:15.367Z,15.50
2022-10-11T12:48:08.006Z,15.54
2022-10-11T12:51:05.288Z,15.62
2022-10-11T12:53:33.791Z,15.69
2022-10-11T12:56:19.819Z,15.74
2022-10-11T12:58:50.633Z,15.75
2022-10-11T13:01:46.233Z,15.70
2022-10-11T13:04:40.677Z,15.54
2022-10-11T13:07:25.964Z,15.48
2022-10-11T13:09:56.106Z,15.49
2022-10-11T13:12:48.832Z,15.38
2022-10-11T13:15:26.177Z,15.19
2022-10-11T13:18:07.279Z,15.04
2022-10-11T13:20:42.630Z,14.92
2022-10-11T13:23:30.487Z,14.80
2022-10-11T13:26:05.690Z,14.84
2022-10-11T13:29:01.741Z,14.92
2022-10-11T13:31:43.762Z,14.97
2022-10-11T13:34:23.055Z,14.96
2022-10-11T13:37:01.755Z,15.02
2022-10-11T13:39:42.084Z,15.10
2022-10-11T13:42:16.537Z,15.15
2022-10-11T13:44:47.156Z,15.15
2022-10-11T13:47:18.842Z,15.08
2022-10-11T13:49:53.357Z,15.05
2022-10-11T13:52:24.237Z,15.04
2022-10-11T13:55:11.614Z,15.03
2022-10-11T13:57:45.511Z,15.05
2022-10-11T14:00:16.649Z,15.03
2022-10-11T14:03:01.817Z,15.02
2022-10-11T14:05:29.989Z,15.03
2022-10-11T14:08:02.052Z,14.96
2022-10-11T14:10:30.328Z,14.89
2022-10-11T14:13:23.929Z,14.89
2022-10-11T14:16:29.134Z,14.81
2022-10-11T14:19:00.381Z,14.64
2022-10-11T14:21:28.168Z,14.52
2022-10-11T14:23:59.798Z,14.44
2022-10-11T14:26:35.694Z,14.40
2022-10-11T14:29:27.172Z,14.37
2022-10-11T14:32:08.428Z,14.31
2022-10-11T14:34:37.033Z,14.28
2022-10-11T14:37:05.310Z,14.23
2022-10-11T14:39:33.686Z,14.18
2022-10-11T14:42:01.859Z,14.15
2022-10-11T14:44:29.724Z,14.09
2022-10-11T14:46:57.490Z,14.08
2022-10-11T14:49:30.704Z,14.06
2022-10-11T14:51:59.284Z,14.02
2022-10-11T14:54:29.001Z,13.94
2022-10-11T14:56:59.501Z,13.88
2022-10-11T14:59:34.658Z,13.81
2022-10-11T15:02:04.305Z,13.70
2022-10-11T15:04:32.214Z,13.64
2022-10-11T15:07:00.105Z,13.57
2022-10-11T15:09:28.349Z,13.51
2022-10-11T15:11:57.102Z,13.44
2022-10-11T15:14:25.793Z,13.38
2022-10-11T15:16:55.019Z,13.32
2022-10-11T15:19:25.075Z,13.26
2022-10-11T15:21:53.007Z,13.16
2022-10-11T15:24:20.934Z,13.10
2022-10-11T15:26:49.251Z,13.03
2022-10-11T15:29:18.058Z,12.95
2022-10-11T15:31:46.714Z,12.87
2022-10-11T15:34:14.697Z,12.80
2022-10-11T15:36:42.654Z,12.73
2022-10-11T15:39:43.084Z,12.64
2022-10-11T15:42:10.873Z,12.51
2022-10-11T15:44:38.658Z,12.45
2022-10-11T15:47:06.474Z,12.38
2022-10-11T15:49:34.209Z,12.31
2022-10-11T15:52:02.101Z,12.24
2022-10-11T15:54:30.480Z,12.18
2022-10-11T15:56:58.960Z,12.12
2022-10-11T15:59:27.030Z,12.07
2022-10-11T16:01:54.944Z,11.99
2022-10-11T16:04:22.773Z,11.90
2022-10-11T16:06:50.487Z,11.80
2022-10-11T16:09:18.217Z,11.70
2022-10-11T16:11:46.028Z,11.56
2022-10-11T16:14:13.771Z,11.42
2022-10-11T16:16:41.523Z,11.32
2022-10-11T16:19:09.646Z,11.21
2022-10-11T16:21:37.415Z,11.10
2022-10-11T16:24:05.375Z,10.98
2022-10-11T16:26:33.360Z,10.86
2022-10-11T16:29:01.236Z,10.75
2022-10-11T16:31:29.204Z,10.64
2022-10-11T16:33:57.864Z,10.53
2022-10-11T16:36:40.846Z,10.42
2022-10-11T16:39:13.760Z,10.33
2022-10-11T16:41:42.848Z,10.26
2022-10-11T16:44:15.684Z,10.17
2022-10-11T16:46:48.150Z,10.09
2022-10-11T16:49:18.656Z,10.02
2022-10-11T16:51:46.400Z,9.94
2022-10-11T16:54:19.300Z,9.84
2022-10-11T16:56:49.691Z,9.77
2022-10-11T16:59:17.901Z,9.70
2022-10-11T17:01:46.479Z,9.65
2022-10-11T17:04:14.964Z,9.58
2022-10-11T17:06:44.249Z,9.50
2022-10-11T17:09:12.320Z,9.41
2022-10-11T17:11:40.900Z,9.33
2022-10-11T17:14:10.612Z,9.24
2022-10-11T17:16:38.475Z,9.17
2022-10-11T17:19:09.908Z,9.10
2022-10-11T17:21:38.653Z,9.02
2022-10-11T17:24:07.461Z,8.94
2022-10-11T17:26:35.276Z,8.87
2022-10-11T17:29:03.069Z,8.80
2022-10-11T17:31:31.098Z,8.71
2022-10-11T17:34:00.725Z,8.63
2022-10-11T17:36:32.062Z,8.57
2022-10-11T17:39:04.736Z,8.50
2022-10-11T17:41:32.586Z,8.45
2022-10-11T17:44:01.872Z,8.39
2022-10-11T17:46:32.873Z,8.34
2022-10-11T17:49:04.928Z,8.30
2022-10-11T17:51:35.084Z,8.24
2022-10-11T17:54:03.989Z,8.17
2022-10-11T17:56:37.438Z,8.11
2022-10-11T17:59:06.724Z,8.05
2022-10-11T18:01:35.065Z,8.01
2022-10-11T18:04:05.039Z,7.99
2022-10-11T18:06:38.884Z,7.96
2022-10-11T18:09:06.978Z,7.93
2022-10-11T18:11:35.481Z,7.89
2022-10-11T18:14:04.595Z,7.87
2022-10-11T18:16:33.130Z,7.84
2022-10-11T18:19:03.969Z,7.82
2022-10-11T18:21:34.500Z,7.81
2022-10-11T18:24:05.091Z,7.78
2022-10-11T18:26:32.882Z,7.75
2022-10-11T18:29:00.917Z,7.71
2022-10-11T18:31:30.531Z,7.67
2022-10-11T18:33:58.353Z,7.65
2022-10-11T18:36:29.336Z,7.62
2022-10-11T18:38:59.989Z,7.60
2022-10-11T18:41:31.717Z,7.57
2022-10-11T18:44:05.078Z,7.52
2022-10-11T18:46:33.619Z,7.48
2022-10-11T18:49:02.320Z,7.44
2022-10-11T18:51:33.937Z,7.40
2022-10-11T18:54:02.469Z,7.34
2022-10-11T18:56:32.495Z,7.29
2022-10-11T18:59:00.318Z,7.24
2022-10-11T19:01:31.172Z,7.19
2022-10-11T19:04:00.396Z,7.14
2022-10-11T19:06:31.772Z,7.10
2022-10-11T19:09:11.783Z,7.06
2022-10-11T19:11:40.563Z,7.01
2022-10-11T19:14:14.890Z,6.97
2022-10-11T19:16:51.690Z,6.94
2022-10-11T19:19:22.583Z,6.89
2022-10-11T19:21:50.667Z,6.85
2022-10-11T19:24:21.127Z,6.82
2022-10-11T19:26:50.515Z,6.80
2022-10-11T19:29:20.089Z,6.78
2022-10-11T19:31:56.405Z,6.75
2022-10-11T19:34:30.038Z,6.70
2022-10-11T19:37:00.839Z,6.65
2022-10-11T19:39:29.782Z,6.61
2022-10-11T19:41:57.645Z,6.57
2022-10-11T19:44:25.427Z,6.53
2022-10-11T19:46:53.408Z,6.49
2022-10-11T19:49:25.061Z,6.45
2022-10-11T19:51:53.884Z,6.42
2022-10-11T19:54:22.410Z,6.38
2022-10-11T19:56:50.551Z,6.35
2022-10-11T19:59:18.970Z,6.31
2022-10-11T20:01:52.354Z,6.28
2022-10-11T20:07:09.598Z,6.22
2022-10-11T20:09:37.367Z,6.17
2022-10-11T20:12:05.807Z,6.14
2022-10-11T20:14:33.658Z,6.10
2022-10-11T20:17:01.382Z,6.06
2022-10-11T20:19:31.211Z,6.03
2022-10-11T20:22:01.182Z,6.02
2022-10-11T20:24:33.488Z,5.97
2022-10-11T20:27:06.598Z,5.93
2022-10-11T20:29:34.879Z,5.90
2022-10-11T20:32:02.934Z,5.87
2022-10-11T20:34:31.176Z,5.83
2022-10-11T20:36:59.319Z,5.80
2022-10-11T20:39:27.279Z,5.75
2022-10-11T20:41:55.142Z,5.70
2022-10-11T20:44:23.216Z,5.65
2022-10-11T20:46:51.397Z,5.61
2022-10-11T20:49:20.162Z,5.57
2022-10-11T20:51:48.511Z,5.54
2022-10-11T20:54:16.931Z,5.52
2022-10-11T20:56:44.793Z,5.48
2022-10-11T20:59:12.692Z,5.46
2022-10-11T21:01:41.838Z,5.42
2022-10-11T21:04:17.917Z,5.40
2022-10-11T21:06:47.345Z,5.36
2022-10-11T21:09:17.037Z,5.31
2022-10-11T21:11:45.015Z,5.29
2022-10-11T21:14:12.915Z,5.26
2022-10-11T21:16:40.700Z,5.23
2022-10-11T21:19:13.396Z,5.19
2022-10-11T21:21:41.577Z,5.17
2022-10-11T21:24:09.850Z,5.15
2022-10-11T21:26:37.656Z,5.13
2022-10-11T21:29:05.618Z,5.12
2022-10-11T21:31:34.570Z,5.10
2022-10-11T21:34:05.406Z,5.09
2022-10-11T21:36:33.753Z,5.06
2022-10-11T21:39:01.658Z,5.02
2022-10-11T21:41:34.134Z,5.00
2022-10-11T21:44:01.995Z,4.97
2022-10-11T21:47:01.163Z,4.95
2022-10-11T21:49:20.136Z,4.93
2022-10-11T21:51:48.630Z,4.89
2022-10-11T21:54:17.029Z,4.87
2022-10-11T21:56:44.877Z,4.85
2022-10-11T21:59:12.921Z,4.83
2022-10-11T22:01:42.065Z,4.79
2022-10-11T22:04:11.168Z,4.77
2022-10-11T22:06:39.733Z,4.76
2022-10-11T22:09:08.689Z,4.75
2022-10-11T22:11:37.642Z,4.75
2022-10-11T22:14:06.000Z,4.75
2022-10-11T22:16:35.230Z,4.73
2022-10-11T22:19:03.651Z,4.71
2022-10-11T22:21:32.131Z,4.70
2022-10-11T22:24:00.257Z,4.68
2022-10-11T22:26:30.817Z,4.66
2022-10-11T22:29:00.246Z,4.64
2022-10-11T22:31:29.336Z,4.61
2022-10-11T22:33:59.247Z,4.59
2022-10-11T22:36:30.750Z,4.57
2022-10-11T22:38:59.067Z,4.54
2022-10-11T22:41:27.043Z,4.52
2022-10-11T22:43:54.797Z,4.53
2022-10-11T22:46:22.630Z,4.53
2022-10-11T22:48:50.386Z,4.55
2022-10-11T22:51:18.176Z,4.54
2022-10-11T22:53:46.057Z,4.55
2022-10-11T22:56:14.253Z,4.55
2022-10-11T22:58:42.125Z,4.55
2022-10-11T23:01:12.532Z,4.54
2022-10-11T23:03:40.474Z,4.53
2022-10-11T23:06:09.044Z,4.53
2022-10-11T23:08:36.831Z,4.51
2022-10-11T23:11:06.658Z,4.50
2022-10-11T23:13:35.234Z,4.47
2022-10-11T23:16:11.802Z,4.44
2022-10-11T23:18:39.765Z,4.43
2022-10-11T23:21:08.555Z,4.40
2022-10-11T23:23:36.620Z,4.39
2022-10-11T23:26:07.661Z,4.36
2022-10-11T23:28:36.226Z,4.33
2022-10-11T23:31:12.729Z,4.30
2022-10-11T23:33:41.073Z,4.28
2022-10-11T23:36:17.745Z,4.27
2022-10-11T23:38:50.651Z,4.27
2022-10-11T23:41:18.610Z,4.26
2022-10-11T23:43:46.580Z,4.26
2022-10-11T23:46:14.452Z,4.25
2022-10-11T23:48:42.412Z,4.24
2022-10-11T23:51:10.689Z,4.23
2022-10-11T23:53:38.553Z,4.20
2022-10-11T23:56:07.433Z,4.19
2022-10-11T23:58:35.420Z,4.16
